Corbin City, New Jersey
Current Conditions -  °F | °C
As of 2:54 PM on Wednesday 28 Jan 2015 (Local Time) from KMIV Reporting Station
Clear Clear  
Wind Chill: 25°   Ceiling: Unl
Heat Index: 34°   Visibility: 10mi
Dew Point:   Wind: 14mph
Humidity: 27%   Direction: 330°NNW
Pressure: 30.13"   Gusts: 25mph
Location:  39.2589°N, 74.8124°W
Report Text: KMIV 281954Z AUTO 33012G22KT 10SM CLR 01/M16 A3013 RMK AO2 SLP203 T00111161
Loading
Personal Weather Stations






























Interactive Weather Map New forecast layout! Learn more

10-Day Weather Forecast

Advertisements
Track Severe Weather on mobile